createdAt,value
2022-12-20T00:01:30.896Z,-0.90
2022-12-20T00:04:00.295Z,-0.90
2022-12-20T00:06:27.468Z,-0.80
2022-12-20T00:08:59.234Z,-0.80
2022-12-20T00:11:27.925Z,-0.70
2022-12-20T00:13:54.900Z,-0.70
2022-12-20T00:16:24.152Z,-0.70
2022-12-20T00:19:00.382Z,-0.70
2022-12-20T00:21:28.173Z,-0.80
2022-12-20T00:23:55.373Z,-0.70
2022-12-20T00:26:25.819Z,-0.60
2022-12-20T00:28:53.070Z,-0.60
2022-12-20T00:31:22.052Z,-0.60
2022-12-20T00:33:50.668Z,-0.60
2022-12-20T00:36:19.023Z,-0.60
2022-12-20T00:38:47.514Z,-0.60
2022-12-20T00:41:20.221Z,-0.60
2022-12-20T00:43:47.711Z,-0.50
2022-12-20T00:46:16.300Z,-0.50
2022-12-20T00:48:43.171Z,-0.50
2022-12-20T00:51:12.784Z,-0.40
2022-12-20T00:53:40.025Z,-0.40
2022-12-20T00:56:07.363Z,-0.40
2022-12-20T00:58:35.949Z,-0.40
2022-12-20T01:01:02.932Z,-0.40
2022-12-20T01:03:30.047Z,-0.40
2022-12-20T01:06:01.550Z,-0.40
2022-12-20T01:08:30.953Z,-0.30
2022-12-20T01:11:03.243Z,-0.30
2022-12-20T01:13:31.111Z,-0.30
2022-12-20T01:16:12.031Z,-0.30
2022-12-20T01:18:39.133Z,-0.30
2022-12-20T01:21:09.896Z,-0.20
2022-12-20T01:23:37.020Z,-0.20
2022-12-20T01:26:06.130Z,-0.20
2022-12-20T01:28:32.904Z,-0.10
2022-12-20T01:31:00.086Z,-0.10
2022-12-20T01:33:26.940Z,0.00
2022-12-20T01:35:58.434Z,0.00
2022-12-20T01:38:25.246Z,0.00
2022-12-20T01:40:52.687Z,0.10
2022-12-20T01:43:20.280Z,0.10
2022-12-20T01:45:47.069Z,0.20
2022-12-20T01:48:26.579Z,0.10
2022-12-20T01:50:53.734Z,0.00
2022-12-20T01:53:23.967Z,0.10
2022-12-20T01:55:51.023Z,0.20
2022-12-20T01:58:19.352Z,0.20
2022-12-20T02:00:46.595Z,0.20
2022-12-20T02:03:15.059Z,0.20
2022-12-20T02:05:45.380Z,0.20
2022-12-20T02:08:16.459Z,0.20
2022-12-20T02:10:43.174Z,0.30
2022-12-20T02:13:18.392Z,0.20
2022-12-20T02:16:04.757Z,0.30
2022-12-20T02:18:53.491Z,0.30
2022-12-20T02:21:36.519Z,0.20
2022-12-20T02:24:05.999Z,0.30
2022-12-20T02:27:11.768Z,0.30
2022-12-20T02:29:56.408Z,0.30
2022-12-20T02:32:28.647Z,0.20
2022-12-20T02:34:55.558Z,0.20
2022-12-20T02:37:22.396Z,0.20
2022-12-20T02:39:49.583Z,0.20
2022-12-20T02:42:21.467Z,0.30
2022-12-20T02:45:17.632Z,0.30
2022-12-20T02:48:02.969Z,0.40
2022-12-20T02:50:37.952Z,0.40
2022-12-20T02:53:06.896Z,0.50
2022-12-20T02:55:43.096Z,0.40
2022-12-20T02:58:21.449Z,0.40
2022-12-20T03:00:51.060Z,0.40
2022-12-20T03:03:24.239Z,0.40
2022-12-20T03:05:56.784Z,0.40
2022-12-20T03:08:24.938Z,0.40
2022-12-20T03:10:53.662Z,0.40
2022-12-20T03:13:22.018Z,0.40
2022-12-20T03:15:48.779Z,0.40
2022-12-20T03:18:15.493Z,0.50
2022-12-20T03:20:42.272Z,0.50
2022-12-20T03:23:09.160Z,0.50
2022-12-20T03:25:35.918Z,0.50
2022-12-20T03:28:02.625Z,0.50
2022-12-20T03:30:29.301Z,0.50
2022-12-20T03:32:56.040Z,0.50
2022-12-20T03:35:22.802Z,0.60
2022-12-20T03:37:49.523Z,0.50
2022-12-20T03:40:16.281Z,0.50
2022-12-20T03:42:43.561Z,0.60
2022-12-20T03:45:10.822Z,0.60
2022-12-20T03:47:37.503Z,0.60
2022-12-20T03:50:05.559Z,0.60
2022-12-20T03:52:32.524Z,0.60
2022-12-20T03:54:59.271Z,0.60
2022-12-20T03:57:25.951Z,0.60
2022-12-20T03:59:54.197Z,0.70
2022-12-20T04:02:21.663Z,0.70
2022-12-20T04:04:49.027Z,0.70
2022-12-20T04:07:15.855Z,0.70
2022-12-20T04:09:42.619Z,0.60
2022-12-20T04:12:09.339Z,0.70
2022-12-20T04:14:37.367Z,0.70
2022-12-20T04:17:05.085Z,0.80
2022-12-20T04:19:31.816Z,0.70
2022-12-20T04:22:04.654Z,0.80
2022-12-20T04:24:32.529Z,0.80
2022-12-20T04:26:59.250Z,0.70
2022-12-20T04:29:26.151Z,0.80
2022-12-20T04:31:52.897Z,0.70
2022-12-20T04:34:19.707Z,0.80
2022-12-20T04:36:46.592Z,0.80
2022-12-20T04:39:13.234Z,0.70
2022-12-20T04:41:39.907Z,0.70
2022-12-20T04:44:06.587Z,0.80
2022-12-20T04:46:33.389Z,0.80
2022-12-20T04:49:00.218Z,0.80
2022-12-20T04:51:28.232Z,0.80
2022-12-20T04:53:55.793Z,0.90
2022-12-20T04:56:28.495Z,0.90
2022-12-20T04:58:57.879Z,0.90
2022-12-20T05:01:25.155Z,0.90
2022-12-20T05:03:52.396Z,0.90
2022-12-20T05:06:19.248Z,0.90
2022-12-20T05:08:46.021Z,0.90
2022-12-20T05:11:13.163Z,0.80
2022-12-20T05:13:40.106Z,0.90
2022-12-20T05:16:07.235Z,0.80
2022-12-20T05:18:34.013Z,0.80
2022-12-20T05:21:20.984Z,0.90
2022-12-20T05:24:06.332Z,0.90
2022-12-20T05:26:37.286Z,0.90
2022-12-20T05:29:05.588Z,0.90
2022-12-20T05:31:32.387Z,0.90
2022-12-20T05:33:59.179Z,0.90
2022-12-20T05:36:26.190Z,0.90
2022-12-20T05:38:55.444Z,0.90
2022-12-20T05:41:26.813Z,0.90
2022-12-20T05:43:53.468Z,0.90
2022-12-20T05:46:20.157Z,0.90
2022-12-20T05:48:46.835Z,1.00
2022-12-20T05:51:13.615Z,1.10
2022-12-20T05:53:40.283Z,1.00
2022-12-20T05:56:08.631Z,1.00
2022-12-20T05:58:35.446Z,1.00
2022-12-20T06:01:04.220Z,1.00
2022-12-20T06:03:31.195Z,1.00
2022-12-20T06:05:58.263Z,1.10
2022-12-20T06:08:25.185Z,1.10
2022-12-20T06:10:51.971Z,1.10
2022-12-20T06:13:20.066Z,1.10
2022-12-20T06:15:46.808Z,1.10
2022-12-20T06:18:13.835Z,1.10
2022-12-20T06:20:40.665Z,1.00
2022-12-20T06:23:07.609Z,1.00
2022-12-20T06:25:34.548Z,1.00
2022-12-20T06:28:01.721Z,0.90
2022-12-20T06:30:33.568Z,0.90
2022-12-20T06:33:01.466Z,0.90
2022-12-20T06:35:28.657Z,0.90
2022-12-20T06:37:55.407Z,0.90
2022-12-20T06:40:22.725Z,0.90
2022-12-20T06:42:50.484Z,0.90
2022-12-20T06:45:17.292Z,1.00
2022-12-20T06:47:44.612Z,1.00
2022-12-20T06:50:11.654Z,1.00
2022-12-20T06:52:38.350Z,1.10
2022-12-20T06:55:05.432Z,1.10
2022-12-20T06:57:33.133Z,1.10
2022-12-20T06:59:59.905Z,1.20
2022-12-20T07:02:27.841Z,1.10
2022-12-20T07:04:55.316Z,1.10
2022-12-20T07:07:22.087Z,1.10
2022-12-20T07:09:48.726Z,1.10
2022-12-20T07:12:15.418Z,1.00
2022-12-20T07:14:42.188Z,1.10
2022-12-20T07:17:09.025Z,1.10
2022-12-20T07:19:36.618Z,1.00
2022-12-20T07:22:04.619Z,1.00
2022-12-20T07:24:32.035Z,1.10
2022-12-20T07:26:59.603Z,1.00
2022-12-20T07:29:26.379Z,1.00
2022-12-20T07:31:53.547Z,1.00
2022-12-20T07:34:20.970Z,1.00
2022-12-20T07:36:48.050Z,1.00
2022-12-20T07:39:14.849Z,1.00
2022-12-20T07:41:41.795Z,1.10
2022-12-20T07:44:08.523Z,1.10
2022-12-20T07:46:35.440Z,1.10
2022-12-20T07:49:02.261Z,1.10
2022-12-20T07:51:43.700Z,1.10
2022-12-20T07:54:18.859Z,1.20
2022-12-20T07:56:50.406Z,1.20
2022-12-20T07:59:20.731Z,1.30
2022-12-20T08:01:48.585Z,1.30
2022-12-20T08:04:21.744Z,1.30
2022-12-20T08:06:50.418Z,1.30
2022-12-20T08:09:17.584Z,1.40
2022-12-20T08:11:47.300Z,1.30
2022-12-20T08:14:14.209Z,1.20
2022-12-20T08:16:41.660Z,1.20
2022-12-20T08:19:08.402Z,1.20
2022-12-20T08:21:35.175Z,1.20
2022-12-20T08:24:01.839Z,1.20
2022-12-20T08:26:28.594Z,1.30
2022-12-20T08:28:55.899Z,1.30
2022-12-20T08:31:22.991Z,1.30
2022-12-20T08:33:49.806Z,1.30
2022-12-20T08:36:16.610Z,1.30
2022-12-20T08:38:43.435Z,1.30
2022-12-20T08:41:15.224Z,1.30
2022-12-20T08:43:42.762Z,1.30
2022-12-20T08:46:10.744Z,1.30
2022-12-20T08:48:37.659Z,1.30
2022-12-20T08:51:07.036Z,1.30
2022-12-20T08:53:34.912Z,1.30
2022-12-20T08:56:10.518Z,1.30
2022-12-20T08:58:37.985Z,1.40
2022-12-20T09:01:07.549Z,1.40
2022-12-20T09:03:35.887Z,1.40
2022-12-20T09:06:06.773Z,1.40
2022-12-20T09:08:35.216Z,1.40
2022-12-20T09:11:17.057Z,1.50
2022-12-20T09:13:45.722Z,1.50
2022-12-20T09:16:14.800Z,1.60
2022-12-20T09:18:41.933Z,1.70
2022-12-20T09:21:09.828Z,1.60
2022-12-20T09:23:37.615Z,1.50
2022-12-20T09:26:23.753Z,1.50
2022-12-20T09:28:51.174Z,1.60
2022-12-20T09:31:23.754Z,1.60
2022-12-20T09:33:53.852Z,1.70
2022-12-20T09:36:22.520Z,1.70
2022-12-20T09:38:49.752Z,1.70
2022-12-20T09:41:29.246Z,1.80
2022-12-20T09:43:57.419Z,1.80
2022-12-20T09:46:25.586Z,1.80
2022-12-20T09:48:53.601Z,2.00
2022-12-20T09:51:44.739Z,1.90
2022-12-20T09:54:37.814Z,2.00
2022-12-20T09:57:22.311Z,1.90
2022-12-20T09:59:49.966Z,2.00
2022-12-20T10:05:38.940Z,2.10
2022-12-20T10:08:52.277Z,2.10
2022-12-20T10:11:43.410Z,2.00
2022-12-20T10:14:45.060Z,2.00
2022-12-20T10:17:27.369Z,1.90
2022-12-20T10:20:19.064Z,2.00
2022-12-20T10:22:53.056Z,2.00
2022-12-20T10:25:30.330Z,2.00
2022-12-20T10:27:57.846Z,2.00
2022-12-20T10:30:27.079Z,2.00
2022-12-20T10:32:56.847Z,2.00
2022-12-20T10:35:50.704Z,2.00
2022-12-20T10:38:18.358Z,2.10
2022-12-20T10:41:20.598Z,2.20
2022-12-20T10:43:52.698Z,2.20
2022-12-20T10:46:19.670Z,2.20
2022-12-20T10:48:48.398Z,2.20
2022-12-20T10:51:19.301Z,2.20
2022-12-20T10:53:59.591Z,2.30
2022-12-20T10:56:36.466Z,2.20
2022-12-20T10:59:28.601Z,2.30
2022-12-20T11:01:55.792Z,2.30
2022-12-20T11:04:30.194Z,2.30
2022-12-20T11:06:57.719Z,2.20
2022-12-20T11:09:27.201Z,2.20
2022-12-20T11:12:16.581Z,2.30
2022-12-20T11:14:45.272Z,2.30
2022-12-20T11:17:14.719Z,2.30
2022-12-20T11:19:56.948Z,2.40
2022-12-20T11:22:51.272Z,2.40
2022-12-20T11:25:59.886Z,2.40
2022-12-20T11:28:58.352Z,2.50
2022-12-20T11:32:00.066Z,2.50
2022-12-20T11:34:47.968Z,2.50
2022-12-20T11:37:23.947Z,2.50
2022-12-20T11:40:15.066Z,2.40
2022-12-20T11:43:02.826Z,2.50
2022-12-20T11:46:11.281Z,2.50
2022-12-20T11:49:08.340Z,2.40
2022-12-20T11:51:53.870Z,2.40
2022-12-20T11:54:28.659Z,2.50
2022-12-20T11:57:02.256Z,2.50
2022-12-20T11:59:45.267Z,2.50
2022-12-20T12:02:15.377Z,2.60
2022-12-20T12:04:56.647Z,2.60
2022-12-20T12:07:30.765Z,2.60
2022-12-20T12:10:16.676Z,2.60
2022-12-20T12:12:50.624Z,2.60
2022-12-20T12:15:50.537Z,2.60
2022-12-20T12:18:24.122Z,2.60
2022-12-20T12:21:09.609Z,2.60
2022-12-20T12:23:47.355Z,2.50
2022-12-20T12:26:33.191Z,2.50
2022-12-20T12:29:05.297Z,2.50
2022-12-20T12:31:58.033Z,2.50
2022-12-20T12:34:53.660Z,2.50
2022-12-20T12:38:02.667Z,2.50
2022-12-20T12:40:52.841Z,2.50
2022-12-20T12:43:19.904Z,2.50
2022-12-20T12:45:49.728Z,2.60
2022-12-20T12:48:24.194Z,2.50
2022-12-20T12:50:56.136Z,2.60
2022-12-20T12:53:41.783Z,2.60
2022-12-20T12:56:43.144Z,2.60
2022-12-20T12:59:34.853Z,2.60
2022-12-20T13:02:04.550Z,2.60
2022-12-20T13:05:25.735Z,2.60
2022-12-20T13:07:53.402Z,2.60
2022-12-20T13:10:20.232Z,2.60
2022-12-20T13:12:48.677Z,2.60
2022-12-20T13:15:21.307Z,2.60
2022-12-20T13:17:56.842Z,2.60
2022-12-20T13:20:34.680Z,2.60
2022-12-20T13:23:13.092Z,2.70
2022-12-20T13:25:44.681Z,2.70
2022-12-20T13:28:22.716Z,2.60
2022-12-20T13:31:01.636Z,2.60
2022-12-20T13:33:45.303Z,2.60
2022-12-20T13:36:12.040Z,2.50
2022-12-20T13:38:58.586Z,2.60
2022-12-20T13:41:46.383Z,2.60
2022-12-20T13:44:21.212Z,2.60
2022-12-20T13:46:57.114Z,2.60
2022-12-20T13:49:53.174Z,2.60
2022-12-20T13:52:33.583Z,2.60
2022-12-20T13:55:07.995Z,2.70
2022-12-20T13:57:46.140Z,2.60
2022-12-20T14:00:25.494Z,2.60
2022-12-20T14:02:53.999Z,2.60
2022-12-20T14:05:26.891Z,2.60
2022-12-20T14:07:59.877Z,2.70
2022-12-20T14:10:28.975Z,2.80
2022-12-20T14:12:56.281Z,2.70
2022-12-20T14:15:31.383Z,2.80
2022-12-20T14:18:19.069Z,2.80
2022-12-20T14:20:49.002Z,2.80
2022-12-20T14:23:20.267Z,2.70
2022-12-20T14:25:54.194Z,2.60
2022-12-20T14:28:45.446Z,2.60
2022-12-20T14:31:32.310Z,2.60
2022-12-20T14:34:03.581Z,2.60
2022-12-20T14:36:31.708Z,2.70
2022-12-20T14:38:58.572Z,2.70
2022-12-20T14:41:35.574Z,2.60
2022-12-20T14:44:08.363Z,2.90
2022-12-20T14:46:37.055Z,2.70
2022-12-20T14:49:12.697Z,2.60
2022-12-20T14:51:39.718Z,2.70
2022-12-20T14:54:06.407Z,2.60
2022-12-20T14:56:33.459Z,2.70
2022-12-20T14:59:17.830Z,2.80
2022-12-20T15:01:44.911Z,2.80
2022-12-20T15:04:30.492Z,2.70
2022-12-20T15:06:58.068Z,2.70
2022-12-20T15:09:25.036Z,2.60
2022-12-20T15:11:52.836Z,2.60
2022-12-20T15:14:28.576Z,2.50
2022-12-20T15:16:55.316Z,2.50
2022-12-20T15:19:22.014Z,2.60
2022-12-20T15:21:48.766Z,2.40
2022-12-20T15:24:19.655Z,2.40
2022-12-20T15:26:46.402Z,2.40
2022-12-20T15:29:17.710Z,2.40
2022-12-20T15:31:45.407Z,2.40
2022-12-20T15:34:28.994Z,2.40
2022-12-20T15:36:56.750Z,2.40
2022-12-20T15:39:23.462Z,2.30
2022-12-20T15:41:50.393Z,2.40
2022-12-20T15:44:26.310Z,2.40
2022-12-20T15:46:53.200Z,2.40
2022-12-20T15:49:22.686Z,2.30
2022-12-20T15:51:50.807Z,2.40
2022-12-20T15:54:30.046Z,2.30
2022-12-20T15:56:58.527Z,2.30
2022-12-20T15:59:58.333Z,2.40
2022-12-20T16:02:24.293Z,2.40
2022-12-20T16:04:52.246Z,2.40
2022-12-20T16:07:19.180Z,2.40
2022-12-20T16:09:45.918Z,2.30
2022-12-20T16:12:18.398Z,2.30
2022-12-20T16:14:45.324Z,2.20
2022-12-20T16:17:15.741Z,2.20
2022-12-20T16:19:43.464Z,2.30
2022-12-20T16:22:22.945Z,2.30
2022-12-20T16:24:50.047Z,2.30
2022-12-20T16:27:16.906Z,2.30
2022-12-20T16:29:43.565Z,2.20
2022-12-20T16:32:15.967Z,2.10
2022-12-20T16:34:43.225Z,2.20
2022-12-20T16:37:11.700Z,2.20
2022-12-20T16:39:38.362Z,2.20
2022-12-20T16:42:14.695Z,2.10
2022-12-20T16:44:44.434Z,2.10
2022-12-20T16:47:12.018Z,2.10
2022-12-20T16:49:38.793Z,2.10
2022-12-20T16:52:06.676Z,2.10
2022-12-20T16:54:33.546Z,2.20
2022-12-20T16:57:00.346Z,2.20
2022-12-20T16:59:27.026Z,2.10
2022-12-20T17:01:56.391Z,2.10
2022-12-20T17:04:24.370Z,2.20
2022-12-20T17:06:51.121Z,2.20
2022-12-20T17:09:19.198Z,2.20
2022-12-20T17:11:46.299Z,2.20
2022-12-20T17:14:13.654Z,2.20
2022-12-20T17:16:41.107Z,2.10
2022-12-20T17:19:08.931Z,2.20
2022-12-20T17:24:23.599Z,2.30
2022-12-20T17:26:50.437Z,2.40
2022-12-20T17:29:17.876Z,2.30
2022-12-20T17:31:46.408Z,2.20
2022-12-20T17:34:24.096Z,2.20
2022-12-20T17:36:53.054Z,2.20
2022-12-20T17:39:20.173Z,2.30
2022-12-20T17:41:47.951Z,2.30
2022-12-20T17:44:29.102Z,2.20
2022-12-20T17:46:57.423Z,2.10
2022-12-20T17:49:24.729Z,2.10
2022-12-20T17:51:52.193Z,2.20
2022-12-20T17:54:24.390Z,2.20
2022-12-20T17:56:52.113Z,2.20
2022-12-20T17:59:19.343Z,2.10
2022-12-20T18:01:46.916Z,2.20
2022-12-20T18:04:15.832Z,2.20
2022-12-20T18:06:43.916Z,2.20
2022-12-20T18:09:16.341Z,2.20
2022-12-20T18:11:43.394Z,2.20
2022-12-20T18:14:10.598Z,2.20
2022-12-20T18:16:39.112Z,2.10
2022-12-20T18:19:07.287Z,2.10
2022-12-20T18:21:34.981Z,2.10
2022-12-20T18:24:01.605Z,2.10
2022-12-20T18:26:32.539Z,2.10
2022-12-20T18:29:01.752Z,2.10
2022-12-20T18:31:30.886Z,2.10
2022-12-20T18:33:58.953Z,2.00
2022-12-20T18:36:37.393Z,2.00
2022-12-20T18:39:06.589Z,2.00
2022-12-20T18:41:33.780Z,1.90
2022-12-20T18:44:03.238Z,1.90
2022-12-20T18:46:30.674Z,1.90
2022-12-20T18:48:59.314Z,1.90
2022-12-20T18:51:29.099Z,1.90
2022-12-20T18:53:57.384Z,1.90
2022-12-20T18:56:28.667Z,1.90
2022-12-20T18:58:56.295Z,1.90
2022-12-20T19:01:25.399Z,1.90
2022-12-20T19:03:53.387Z,1.90
2022-12-20T19:06:20.797Z,1.90
2022-12-20T19:08:48.734Z,1.90
2022-12-20T19:11:18.099Z,1.90
2022-12-20T19:13:45.330Z,2.10
2022-12-20T19:16:18.108Z,2.10
2022-12-20T19:18:45.575Z,2.00
2022-12-20T19:21:24.423Z,2.10
2022-12-20T19:23:54.050Z,2.10
2022-12-20T19:26:22.677Z,2.20
2022-12-20T19:28:49.987Z,2.10
2022-12-20T19:31:24.854Z,2.00
2022-12-20T19:34:00.423Z,1.90
2022-12-20T19:36:30.089Z,2.00
2022-12-20T19:39:00.993Z,2.10
2022-12-20T19:41:30.112Z,2.00
2022-12-20T19:43:57.193Z,2.00
2022-12-20T19:46:29.095Z,2.00
2022-12-20T19:48:57.935Z,2.10
2022-12-20T19:51:25.831Z,2.10
2022-12-20T19:53:53.965Z,2.10
2022-12-20T19:56:26.303Z,2.10
2022-12-20T19:58:53.495Z,2.10
2022-12-20T20:01:23.020Z,2.30
2022-12-20T20:03:49.963Z,2.20
2022-12-20T20:06:16.845Z,2.20
2022-12-20T20:08:44.827Z,2.20
2022-12-20T20:11:11.812Z,2.20
2022-12-20T20:13:39.577Z,2.30
2022-12-20T20:16:07.259Z,2.20
2022-12-20T20:18:35.737Z,2.10
2022-12-20T20:21:15.304Z,2.00
2022-12-20T20:23:42.353Z,2.10
2022-12-20T20:26:13.103Z,2.10
2022-12-20T20:28:44.744Z,2.10
2022-12-20T20:31:14.392Z,2.10
2022-12-20T20:33:41.810Z,2.10
2022-12-20T20:36:12.161Z,2.10
2022-12-20T20:38:38.925Z,2.10
2022-12-20T20:41:05.869Z,2.10
2022-12-20T20:43:38.057Z,2.20
2022-12-20T20:46:06.807Z,2.20
2022-12-20T20:48:33.745Z,2.10
2022-12-20T20:51:00.785Z,2.20
2022-12-20T20:53:33.078Z,2.10
2022-12-20T20:56:01.742Z,2.10
2022-12-20T20:58:28.534Z,2.10
2022-12-20T21:01:00.152Z,2.10
2022-12-20T21:03:28.197Z,2.10
2022-12-20T21:08:41.985Z,2.20
2022-12-20T21:11:09.929Z,2.20
2022-12-20T21:13:37.381Z,2.20
2022-12-20T21:16:11.840Z,2.20
2022-12-20T21:18:38.833Z,2.20
2022-12-20T21:21:14.425Z,2.30
2022-12-20T21:23:45.225Z,2.20
2022-12-20T21:26:12.831Z,2.30
2022-12-20T21:28:40.596Z,2.30
2022-12-20T21:31:11.922Z,2.20
2022-12-20T21:33:38.865Z,2.20
2022-12-20T21:36:08.660Z,2.20
2022-12-20T21:38:36.187Z,2.20
2022-12-20T21:41:11.419Z,2.20
2022-12-20T21:43:38.369Z,2.20
2022-12-20T21:46:05.410Z,2.20
2022-12-20T21:48:32.094Z,2.10
2022-12-20T21:51:05.812Z,2.10
2022-12-20T21:53:33.435Z,2.20
2022-12-20T21:56:00.664Z,2.20
2022-12-20T21:58:28.973Z,2.20
2022-12-20T22:00:56.727Z,2.20
2022-12-20T22:03:24.583Z,2.20
2022-12-20T22:05:53.400Z,2.20
2022-12-20T22:08:21.516Z,2.30
2022-12-20T22:10:49.972Z,2.30
2022-12-20T22:13:16.850Z,2.30
2022-12-20T22:15:44.158Z,2.20
2022-12-20T22:18:11.272Z,2.20
2022-12-20T22:20:37.943Z,2.20
2022-12-20T22:23:05.425Z,2.30
2022-12-20T22:25:35.297Z,2.30
2022-12-20T22:28:02.187Z,2.30
2022-12-20T22:30:28.943Z,2.30
2022-12-20T22:32:55.621Z,2.20
2022-12-20T22:35:23.077Z,2.30
2022-12-20T22:37:51.847Z,2.30
2022-12-20T22:40:19.457Z,2.20
2022-12-20T22:42:46.114Z,2.20
2022-12-20T22:45:12.820Z,2.20
2022-12-20T22:47:41.150Z,2.20
2022-12-20T22:50:08.855Z,2.20
2022-12-20T22:52:35.653Z,2.20
2022-12-20T22:55:03.107Z,2.30
2022-12-20T22:57:29.938Z,2.20
2022-12-20T22:59:58.785Z,2.20
2022-12-20T23:02:26.996Z,2.20
2022-12-20T23:04:54.397Z,2.30
2022-12-20T23:07:21.780Z,2.30
2022-12-20T23:09:48.896Z,2.30
2022-12-20T23:12:34.124Z,2.30
2022-12-20T23:15:19.764Z,2.30
2022-12-20T23:17:46.406Z,2.30
2022-12-20T23:20:32.060Z,2.30
2022-12-20T23:22:58.676Z,2.30
2022-12-20T23:25:25.653Z,2.40
2022-12-20T23:27:52.817Z,2.30
2022-12-20T23:30:23.375Z,2.30
2022-12-20T23:32:50.485Z,2.30
2022-12-20T23:35:20.148Z,2.30
2022-12-20T23:37:47.931Z,2.30
2022-12-20T23:40:16.523Z,2.30
2022-12-20T23:42:44.081Z,2.40
2022-12-20T23:45:11.168Z,2.30
2022-12-20T23:47:37.876Z,2.30
2022-12-20T23:50:05.150Z,2.30
2022-12-20T23:52:31.851Z,2.30
2022-12-20T23:54:58.522Z,2.20
2022-12-20T23:57:25.154Z,2.30
2022-12-20T23:59:51.805Z,2.30
